KAEX/AEX METAR and TAF weather

Enter ICAO airport designator
Station Type Date Time Source
KAEX METAR 2023/09/27 01:53 UTC NOAA

KAEX 270153Z 22007KT 10SM BKN065 BKN110 26/22 A2997 RMK AO2 LTG DSNT S-W RAE0059B22E31 TSE11 SLP152 P0000 T02610222


Station Type Date Time Source
KAEX Decoded METAR 2023/09/27 01:53 UTC NOAA

ALEXANDRIA INTERNATIONAL AIRPORT, LA, United States (KAEX) 31-33N 092-56W 27M
Sep 26, 2023 - 09:53 PM EDT / 2023.09.27 0153 UTC
Wind: from the SW (220 degrees) at 8 MPH (7 KT):0
Visibility: 10 mile(s):0
Sky conditions: mostly cloudy
Weather: Lightning observed
Precipitation last hour: A trace
Temperature: 79.0 F (26.1 C)
Dew Point: 72.0 F (22.2 C)
Relative Humidity: 79%
Pressure (altimeter): 29.97 in. Hg (1014 hPa)
ob: KAEX 270153Z 22007KT 10SM BKN065 BKN110 26/22 A2997 RMK AO2 LTG DSNT S-W RAE0059B22E31 TSE11 SLP152 P0000 T02610222
cycle: 2

Station Type Date Time Source
KAEX TAF 2023/09/26 18:42 UTC NOAA

TAF KAEX 261740Z 2618/2718 VRB05KT P6SM SCT030 BKN100
FM270100 VRB03KT P6SM SKC
FM270700 00000KT 4SM BR SKC
FM271300 VRB03KT P6SM SKC

Example: see airport list